createdAt,value
2018-10-12T04:00:10.560Z,10.80
2018-10-12T04:02:38.750Z,10.80
2018-10-12T04:05:06.812Z,10.60
2018-10-12T04:07:34.952Z,10.60
2018-10-12T04:10:03.067Z,10.40
2018-10-12T04:12:31.232Z,10.60
2018-10-12T04:14:59.452Z,10.60
2018-10-12T04:17:27.597Z,10.60
2018-10-12T04:19:57.491Z,10.70
2018-10-12T04:22:26.304Z,10.80
2018-10-12T04:24:54.570Z,10.90
2018-10-12T04:27:22.707Z,10.90
2018-10-12T04:29:50.819Z,11.00
2018-10-12T04:32:18.943Z,11.10
2018-10-12T04:34:47.647Z,11.30
2018-10-12T04:37:17.060Z,11.20
2018-10-12T04:39:53.373Z,11.20
2018-10-12T04:42:21.499Z,11.30
2018-10-12T04:44:49.675Z,11.50
2018-10-12T04:47:18.069Z,11.60
2018-10-12T04:49:46.387Z,11.40
2018-10-12T04:52:15.107Z,11.50
2018-10-12T04:54:43.307Z,11.50
2018-10-12T04:57:16.360Z,11.80
2018-10-12T04:59:45.027Z,11.60
2018-10-12T05:02:13.123Z,11.80
2018-10-12T05:04:41.568Z,11.80
2018-10-12T05:07:09.699Z,11.80
2018-10-12T05:09:37.867Z,11.80
2018-10-12T05:12:07.468Z,11.60
2018-10-12T05:14:37.735Z,11.70
2018-10-12T05:17:06.715Z,11.60
2018-10-12T05:19:35.159Z,11.90
2018-10-12T05:22:03.308Z,11.90
2018-10-12T05:24:31.328Z,11.90
2018-10-12T05:26:59.507Z,11.90
2018-10-12T05:29:28.156Z,12.00
2018-10-12T05:31:56.816Z,12.00
2018-10-12T05:34:25.214Z,11.80
2018-10-12T05:36:53.319Z,12.00
2018-10-12T05:39:21.415Z,12.00
2018-10-12T05:41:49.535Z,11.70
2018-10-12T05:44:17.708Z,11.90
2018-10-12T05:46:46.795Z,11.70
2018-10-12T05:49:26.403Z,11.70
2018-10-12T05:51:54.764Z,11.90
2018-10-12T05:54:22.990Z,11.80
2018-10-12T05:56:53.077Z,11.90
2018-10-12T05:59:21.241Z,12.10
2018-10-12T06:01:49.436Z,12.00
2018-10-12T06:04:17.580Z,12.10
2018-10-12T06:06:46.068Z,12.40
2018-10-12T06:09:14.172Z,12.50
2018-10-12T06:11:42.346Z,12.60
2018-10-12T06:14:10.499Z,12.20
2018-10-12T06:16:38.672Z,12.10
2018-10-12T06:19:06.796Z,12.10
2018-10-12T06:21:34.958Z,12.50
2018-10-12T06:24:02.984Z,12.60
2018-10-12T06:26:31.075Z,13.20
2018-10-12T06:28:59.668Z,13.40
2018-10-12T06:31:29.198Z,13.50
2018-10-12T06:33:59.514Z,13.50
2018-10-12T06:36:27.824Z,13.40
2018-10-12T06:38:56.012Z,13.40
2018-10-12T06:41:24.287Z,13.40
2018-10-12T06:43:52.431Z,13.30
2018-10-12T06:46:20.603Z,13.20
2018-10-12T06:48:48.744Z,13.40
2018-10-12T06:51:16.895Z,13.40
2018-10-12T06:53:46.848Z,13.40
2018-10-12T06:56:15.262Z,13.50
2018-10-12T06:58:43.395Z,13.70
2018-10-12T07:01:11.512Z,13.70
2018-10-12T07:03:40.195Z,13.90
2018-10-12T07:06:07.751Z,14.00
2018-10-12T07:08:35.940Z,14.10
2018-10-12T07:11:04.425Z,14.40
2018-10-12T07:13:32.487Z,14.50
2018-10-12T07:16:02.194Z,14.80
2018-10-12T07:18:30.283Z,15.20
2018-10-12T07:20:58.424Z,15.40
2018-10-12T07:23:26.511Z,16.00
2018-10-12T07:25:55.743Z,16.20
2018-10-12T07:28:23.795Z,16.60
2018-10-12T07:30:51.875Z,17.50
2018-10-12T07:33:19.975Z,18.20
2018-10-12T07:35:48.062Z,18.80
2018-10-12T07:38:17.131Z,19.40
2018-10-12T07:40:45.257Z,19.90
2018-10-12T07:43:13.389Z,20.20
2018-10-12T07:45:41.481Z,20.60
2018-10-12T07:48:09.721Z,20.90
2018-10-12T07:50:37.763Z,21.00
2018-10-12T07:53:06.174Z,21.40
2018-10-12T07:55:34.263Z,21.50
2018-10-12T07:58:02.378Z,22.20
2018-10-12T08:00:30.707Z,22.10
2018-10-12T08:02:58.744Z,22.50
2018-10-12T08:05:26.819Z,21.90
2018-10-12T08:07:55.084Z,22.10
2018-10-12T08:10:23.158Z,22.30
2018-10-12T08:12:51.252Z,22.60
2018-10-12T08:15:19.343Z,23.00
2018-10-12T08:17:47.475Z,22.70
2018-10-12T08:20:16.545Z,23.30
2018-10-12T08:22:44.671Z,23.50
2018-10-12T08:25:12.751Z,23.60
2018-10-12T08:27:40.879Z,23.50
2018-10-12T08:30:16.529Z,23.80
2018-10-12T08:32:44.599Z,24.40
2018-10-12T08:35:12.684Z,24.70
2018-10-12T08:37:40.865Z,25.00
2018-10-12T08:40:08.931Z,25.40
2018-10-12T08:42:37.019Z,25.80
2018-10-12T08:45:07.308Z,25.80
2018-10-12T08:47:35.625Z,25.50
2018-10-12T08:50:04.182Z,25.00
2018-10-12T08:52:32.250Z,26.00
2018-10-12T08:55:00.793Z,26.40
2018-10-12T08:57:28.879Z,27.20
2018-10-12T08:59:57.100Z,27.70
2018-10-12T09:02:25.676Z,27.90
2018-10-12T09:04:53.804Z,27.30
2018-10-12T09:07:23.156Z,27.50
2018-10-12T09:09:51.436Z,27.90
2018-10-12T09:12:19.519Z,28.60
2018-10-12T09:14:47.623Z,27.40
2018-10-12T09:17:15.915Z,27.30
2018-10-12T09:19:44.047Z,27.50
2018-10-12T09:22:14.360Z,27.40
2018-10-12T09:24:42.636Z,28.00
2018-10-12T09:29:40.316Z,28.80
2018-10-12T09:32:08.403Z,28.20
2018-10-12T09:34:36.643Z,28.00
2018-10-12T09:37:04.775Z,28.30
2018-10-12T09:39:32.844Z,28.00
2018-10-12T09:42:00.964Z,28.60
2018-10-12T09:44:31.303Z,29.00
2018-10-12T09:46:59.431Z,30.10
2018-10-12T09:49:27.662Z,30.00
2018-10-12T09:52:07.803Z,29.80
2018-10-12T09:54:36.281Z,29.80
2018-10-12T09:57:09.739Z,28.90
2018-10-12T09:59:37.855Z,27.80
2018-10-12T10:02:11.532Z,28.60
2018-10-12T10:04:44.563Z,29.00
2018-10-12T10:07:16.923Z,29.40
2018-10-12T10:09:45.067Z,29.90
2018-10-12T10:12:13.170Z,30.30
2018-10-12T10:14:41.332Z,30.10
2018-10-12T10:17:10.531Z,29.90
2018-10-12T10:19:38.623Z,28.70
2018-10-12T10:22:06.783Z,29.10
2018-10-12T10:24:35.155Z,30.10
2018-10-12T10:27:03.337Z,28.80
2018-10-12T10:29:32.135Z,28.50
2018-10-12T10:32:00.228Z,28.80
2018-10-12T10:34:30.866Z,29.50
2018-10-12T10:36:58.960Z,31.00
2018-10-12T10:39:41.352Z,31.00
2018-10-12T10:42:09.432Z,30.80
2018-10-12T10:44:37.520Z,31.80
2018-10-12T10:47:06.256Z,31.80
2018-10-12T10:49:37.339Z,31.90
2018-10-12T10:52:06.476Z,32.10
2018-10-12T10:54:34.572Z,32.00
2018-10-12T10:57:21.580Z,32.90
2018-10-12T10:59:50.259Z,32.60
2018-10-12T11:02:18.724Z,32.70
2018-10-12T11:04:48.159Z,32.90
2018-10-12T11:07:24.148Z,33.70
2018-10-12T11:09:52.340Z,33.90
2018-10-12T11:12:26.803Z,33.40
2018-10-12T11:14:56.303Z,32.50
2018-10-12T11:17:24.520Z,32.90
2018-10-12T11:19:52.865Z,33.30
2018-10-12T11:22:21.283Z,33.30
2018-10-12T11:24:49.524Z,33.50
2018-10-12T11:27:18.133Z,33.90
2018-10-12T11:29:46.376Z,33.90
2018-10-12T11:32:14.888Z,31.50
2018-10-12T11:34:43.008Z,31.70
2018-10-12T11:37:12.501Z,32.40
2018-10-12T11:39:41.780Z,32.40
2018-10-12T11:42:09.915Z,32.80
2018-10-12T11:44:40.133Z,32.70
2018-10-12T11:47:09.347Z,32.60
2018-10-12T11:49:38.535Z,33.30
2018-10-12T11:52:06.869Z,33.00
2018-10-12T11:54:34.961Z,32.70
2018-10-12T11:57:03.058Z,33.90
2018-10-12T11:59:31.188Z,33.90
2018-10-12T12:01:59.961Z,33.70
2018-10-12T12:04:29.294Z,34.50
2018-10-12T12:06:57.382Z,34.10
2018-10-12T12:09:26.999Z,34.50
2018-10-12T12:11:55.153Z,34.00
2018-10-12T12:14:23.488Z,33.20
2018-10-12T12:16:51.596Z,34.00
2018-10-12T12:19:20.126Z,34.30
2018-10-12T12:21:48.143Z,33.90
2018-10-12T12:24:16.348Z,34.00
2018-10-12T12:26:45.139Z,34.00
2018-10-12T12:29:13.201Z,33.70
2018-10-12T12:31:42.340Z,34.20
2018-10-12T12:34:10.572Z,34.00
2018-10-12T12:36:38.650Z,33.60
2018-10-12T12:39:08.206Z,32.70
2018-10-12T12:41:36.999Z,34.70
2018-10-12T12:44:05.424Z,35.30
2018-10-12T12:46:33.539Z,34.10
2018-10-12T12:49:03.008Z,32.80
2018-10-12T12:51:33.133Z,33.60
2018-10-12T12:56:49.139Z,34.30
2018-10-12T12:59:17.236Z,34.70
2018-10-12T13:01:45.454Z,33.90
2018-10-12T13:04:14.533Z,32.80
2018-10-12T13:06:42.667Z,33.70
2018-10-12T13:09:12.121Z,34.80
2018-10-12T13:11:40.440Z,34.60
2018-10-12T13:14:08.688Z,34.50
2018-10-12T13:16:36.799Z,34.40
2018-10-12T13:19:04.905Z,34.50
2018-10-12T13:21:33.051Z,35.30
2018-10-12T13:24:01.224Z,35.30
2018-10-12T13:26:29.327Z,34.40
2018-10-12T13:28:57.452Z,33.20
2018-10-12T13:31:27.133Z,33.10
2018-10-12T13:33:56.068Z,33.90
2018-10-12T13:36:24.651Z,33.70
2018-10-12T13:38:52.772Z,33.90
2018-10-12T13:41:34.512Z,33.30
2018-10-12T13:44:02.680Z,33.90
2018-10-12T13:46:30.882Z,33.70
2018-10-12T13:48:58.991Z,33.40
2018-10-12T13:51:27.116Z,32.80
2018-10-12T13:53:55.287Z,32.90
2018-10-12T13:56:23.604Z,33.70
2018-10-12T13:58:51.775Z,34.10
2018-10-12T14:01:19.931Z,34.40
2018-10-12T14:03:49.142Z,32.60
2018-10-12T14:06:17.295Z,31.30
2018-10-12T14:08:45.736Z,30.70
2018-10-12T14:11:13.830Z,30.70
2018-10-12T14:13:42.508Z,30.90
2018-10-12T14:16:16.683Z,30.90
2018-10-12T14:18:45.054Z,31.50
2018-10-12T14:21:15.388Z,30.60
2018-10-12T14:23:45.484Z,30.40
2018-10-12T14:26:13.732Z,30.00
2018-10-12T14:28:41.827Z,29.20
2018-10-12T14:31:10.695Z,29.30
2018-10-12T14:33:38.979Z,30.20
2018-10-12T14:36:08.424Z,30.30
2018-10-12T14:38:36.633Z,29.70
